createdAt,value
2022-08-19T00:04:53.766Z,10.55
2022-08-19T00:09:57.280Z,8.88
2022-08-19T00:15:02.580Z,9.32
2022-08-19T00:20:07.491Z,8.68
2022-08-19T00:25:11.189Z,10.43
2022-08-19T00:30:16.567Z,8.90
2022-08-19T00:35:20.250Z,9.50
2022-08-19T00:40:23.999Z,9.82
2022-08-19T00:45:31.616Z,12.20
2022-08-19T00:50:36.903Z,11.10
2022-08-19T00:55:58.643Z,9.98
2022-08-19T01:01:04.329Z,10.93
2022-08-19T01:06:08.483Z,9.45
2022-08-19T01:11:12.080Z,10.48
2022-08-19T01:16:18.632Z,12.57
2022-08-19T01:21:28.496Z,13.27
2022-08-19T01:26:33.420Z,10.63
2022-08-19T01:31:38.034Z,10.48
2022-08-19T01:36:46.786Z,14.20
2022-08-19T01:41:53.334Z,15.40
2022-08-19T01:46:56.987Z,15.88
2022-08-19T01:52:01.839Z,14.77
2022-08-19T01:57:10.719Z,11.50
2022-08-19T02:02:14.787Z,12.35
2022-08-19T02:07:21.406Z,13.07
2022-08-19T02:12:26.218Z,17.77
2022-08-19T02:17:30.155Z,14.20
2022-08-19T02:22:33.875Z,15.73
2022-08-19T02:27:39.042Z,17.27
2022-08-19T02:32:54.323Z,18.67
2022-08-19T02:38:15.640Z,14.00
2022-08-19T02:43:22.160Z,14.07
2022-08-19T02:48:27.238Z,15.95
2022-08-19T02:53:30.890Z,13.77
2022-08-19T02:58:35.867Z,15.20
2022-08-19T03:03:39.742Z,15.38
2022-08-19T03:08:45.524Z,14.35
2022-08-19T03:13:51.778Z,16.38
2022-08-19T03:18:56.133Z,13.50
2022-08-19T03:24:01.799Z,15.68
2022-08-19T03:29:08.615Z,15.13
2022-08-19T03:34:15.719Z,15.73
2022-08-19T03:39:20.206Z,13.63
2022-08-19T03:44:25.372Z,20.13
2022-08-19T03:49:31.221Z,15.52
2022-08-19T04:00:13.413Z,17.83
2022-08-19T04:05:17.593Z,17.00
2022-08-19T04:10:21.109Z,16.88
2022-08-19T04:15:25.987Z,16.25
2022-08-19T04:20:29.469Z,15.85
2022-08-19T04:25:38.088Z,19.52
2022-08-19T04:30:46.010Z,15.10
2022-08-19T04:35:52.482Z,14.57
2022-08-19T04:41:13.599Z,15.13
2022-08-19T04:51:45.309Z,16.80
2022-08-19T04:56:50.884Z,17.67
2022-08-19T05:01:55.721Z,14.68
2022-08-19T05:07:00.830Z,18.08
2022-08-19T05:12:06.592Z,16.38
2022-08-19T05:17:27.194Z,22.33
2022-08-19T05:22:35.681Z,25.48
2022-08-19T05:27:39.145Z,22.05
2022-08-19T05:32:44.509Z,18.70
2022-08-19T05:37:48.084Z,18.92
2022-08-19T05:42:55.218Z,21.30
2022-08-19T05:48:00.558Z,24.88
2022-08-19T05:53:04.017Z,24.67
2022-08-19T05:58:08.422Z,20.35
2022-08-19T06:03:13.520Z,21.40
2022-08-19T06:08:19.369Z,17.83
2022-08-19T06:13:24.821Z,20.27
2022-08-19T06:18:30.200Z,19.73
2022-08-19T06:23:35.091Z,20.52
2022-08-19T06:28:47.449Z,25.98
2022-08-19T06:33:53.648Z,25.30
2022-08-19T06:38:58.632Z,36.80
2022-08-19T06:44:02.104Z,36.47
2022-08-19T06:49:11.222Z,35.50
2022-08-19T06:54:19.305Z,54.97
2022-08-19T06:59:28.133Z,94.13
2022-08-19T07:04:34.824Z,106.28
2022-08-19T07:09:39.909Z,133.88
2022-08-19T07:14:47.282Z,122.25
2022-08-19T07:19:54.493Z,129.50
2022-08-19T07:24:58.326Z,110.75
2022-08-19T07:30:02.903Z,117.32
2022-08-19T07:35:10.359Z,140.15
2022-08-19T07:40:14.393Z,129.35
2022-08-19T07:45:18.191Z,113.85
2022-08-19T07:50:23.894Z,99.25
2022-08-19T07:55:41.839Z,93.70
2022-08-19T08:00:50.016Z,99.25
2022-08-19T08:06:23.592Z,94.68
2022-08-19T08:11:27.276Z,79.60
2022-08-19T08:16:39.673Z,74.97
2022-08-19T08:21:54.752Z,70.15
2022-08-19T08:26:59.967Z,85.25
2022-08-19T08:32:14.214Z,72.55
2022-08-19T08:37:19.958Z,59.95
2022-08-19T08:42:29.572Z,56.05
2022-08-19T08:47:37.437Z,55.28
2022-08-19T08:52:49.470Z,44.28
2022-08-19T08:57:58.444Z,41.47
2022-08-19T09:03:04.031Z,53.22
2022-08-19T09:08:16.320Z,51.88
2022-08-19T09:13:31.637Z,51.97
2022-08-19T09:18:43.226Z,48.55
2022-08-19T09:23:50.923Z,50.90
2022-08-19T09:28:55.907Z,45.13
2022-08-19T09:34:04.756Z,53.63
2022-08-19T09:39:14.829Z,50.40
2022-08-19T09:44:21.370Z,54.88
2022-08-19T09:49:25.500Z,56.08
2022-08-19T09:54:30.564Z,58.72
2022-08-19T09:59:34.244Z,52.90
2022-08-19T10:04:56.744Z,44.42
2022-08-19T10:15:07.278Z,41.30
2022-08-19T10:20:11.773Z,42.97
2022-08-19T10:25:17.663Z,41.38
2022-08-19T10:30:22.278Z,39.20
2022-08-19T10:35:30.408Z,41.22
2022-08-19T10:40:35.938Z,34.97
2022-08-19T10:45:52.614Z,38.75
2022-08-19T10:51:22.606Z,39.22
2022-08-19T10:56:45.858Z,34.43
2022-08-19T11:01:50.030Z,32.88
2022-08-19T11:06:58.100Z,34.85
2022-08-19T11:12:04.715Z,44.80
2022-08-19T11:17:08.898Z,34.50
2022-08-19T11:22:12.614Z,29.67
2022-08-19T11:27:24.246Z,39.70
2022-08-19T11:32:28.308Z,30.13
2022-08-19T11:37:32.091Z,31.65
2022-08-19T11:42:54.566Z,31.15
2022-08-19T11:47:58.348Z,36.38
2022-08-19T11:53:01.912Z,31.63
2022-08-19T11:58:07.384Z,30.05
2022-08-19T12:03:22.715Z,31.23
2022-08-19T12:08:26.276Z,32.25
2022-08-19T12:13:32.901Z,32.25
2022-08-19T12:18:36.499Z,25.75
2022-08-19T12:23:40.344Z,34.92
2022-08-19T12:28:45.978Z,36.00
2022-08-19T12:33:49.879Z,40.17
2022-08-19T12:38:53.995Z,33.95
2022-08-19T12:43:59.359Z,33.58
2022-08-19T12:49:12.191Z,34.13
2022-08-19T12:54:27.889Z,35.83
2022-08-19T12:59:32.806Z,34.28
2022-08-19T13:04:41.472Z,38.10
2022-08-19T13:09:45.751Z,36.65
2022-08-19T13:14:51.114Z,36.58
2022-08-19T13:19:54.726Z,37.03
2022-08-19T13:24:58.488Z,27.67
2022-08-19T13:30:22.162Z,29.60
2022-08-19T13:35:25.703Z,29.05
2022-08-19T13:40:30.273Z,27.92
2022-08-19T13:45:36.235Z,31.35
2022-08-19T13:50:43.360Z,22.30
2022-08-19T13:55:47.615Z,25.42
2022-08-19T14:00:52.767Z,30.00
2022-08-19T14:05:56.320Z,35.42
2022-08-19T14:11:00.094Z,30.83
2022-08-19T14:21:21.969Z,33.60
2022-08-19T14:26:25.652Z,28.93
2022-08-19T14:31:31.466Z,31.83
2022-08-19T14:36:39.132Z,29.33
2022-08-19T14:41:44.048Z,28.33
2022-08-19T14:46:49.575Z,28.67
2022-08-19T14:51:53.461Z,27.92
2022-08-19T14:56:57.293Z,24.65
2022-08-19T15:02:33.631Z,16.80
2022-08-19T15:07:25.804Z,15.68
2022-08-19T15:12:33.270Z,19.88
2022-08-19T15:17:54.490Z,22.38
2022-08-19T15:22:58.760Z,17.60
2022-08-19T15:28:02.323Z,18.20
2022-08-19T15:33:08.151Z,8.05
2022-08-19T15:38:14.013Z,7.20
2022-08-19T15:43:20.608Z,6.25
2022-08-19T15:48:25.435Z,5.30
2022-08-19T15:53:28.985Z,4.65
2022-08-19T15:58:50.562Z,3.92
2022-08-19T16:04:16.044Z,5.78
2022-08-19T16:09:27.020Z,127.15
2022-08-19T16:14:33.615Z,9.50
2022-08-19T16:19:38.687Z,6.72
2022-08-19T16:24:42.205Z,5.50
2022-08-19T16:29:45.713Z,4.38
2022-08-19T16:34:50.727Z,6.70
2022-08-19T16:39:54.415Z,4.80
2022-08-19T16:44:57.967Z,6.47
2022-08-19T16:50:03.072Z,6.38
2022-08-19T16:55:08.449Z,8.45
2022-08-19T17:00:13.944Z,7.18
2022-08-19T17:05:19.644Z,10.60
2022-08-19T17:10:23.323Z,7.47
2022-08-19T17:15:26.813Z,7.93
2022-08-19T17:20:32.362Z,10.90
2022-08-19T17:25:37.776Z,11.95
2022-08-19T17:30:42.298Z,10.48
2022-08-19T17:35:48.061Z,8.57
2022-08-19T17:40:52.075Z,11.52
2022-08-19T17:45:55.590Z,10.65
2022-08-19T17:51:01.094Z,8.70
2022-08-19T17:56:04.996Z,9.10
2022-08-19T18:01:11.535Z,7.68
2022-08-19T18:06:18.308Z,8.65
2022-08-19T18:11:21.906Z,9.23
2022-08-19T18:16:25.973Z,7.55
2022-08-19T18:21:31.995Z,7.53
2022-08-19T18:26:35.524Z,8.55
2022-08-19T18:31:39.741Z,8.43
2022-08-19T18:36:53.920Z,8.52
2022-08-19T18:42:15.462Z,8.38
2022-08-19T18:47:36.735Z,10.55
2022-08-19T18:52:41.727Z,10.93
2022-08-19T18:57:45.749Z,10.10
2022-08-19T19:02:50.133Z,13.20
2022-08-19T19:07:55.414Z,13.43
2022-08-19T19:12:59.213Z,15.18
2022-08-19T19:18:02.776Z,18.75
2022-08-19T19:23:07.684Z,17.73
2022-08-19T19:28:14.616Z,20.95
2022-08-19T19:33:19.864Z,29.27
2022-08-19T19:38:24.778Z,14.13
2022-08-19T19:43:35.884Z,17.48
2022-08-19T19:48:46.885Z,13.25
2022-08-19T19:53:53.695Z,13.57
2022-08-19T19:58:57.311Z,11.60
2022-08-19T20:04:01.506Z,8.13
2022-08-19T20:09:12.226Z,8.52
2022-08-19T20:14:20.804Z,10.32
2022-08-19T20:19:27.128Z,10.20
2022-08-19T20:24:35.257Z,9.60
2022-08-19T20:29:41.655Z,9.05
2022-08-19T20:34:49.161Z,13.68
2022-08-19T20:39:54.149Z,13.32
2022-08-19T20:44:57.944Z,9.68
2022-08-19T20:50:01.469Z,12.98
2022-08-19T20:55:07.070Z,10.38
2022-08-19T21:00:12.735Z,10.10
2022-08-19T21:05:16.275Z,8.85
2022-08-19T21:10:21.390Z,12.45
2022-08-19T21:15:25.667Z,8.40
2022-08-19T21:20:29.153Z,10.43
2022-08-19T21:25:34.369Z,14.55
2022-08-19T21:30:38.139Z,10.55
2022-08-19T21:35:41.852Z,11.07
2022-08-19T21:40:46.732Z,9.45
2022-08-19T21:45:50.990Z,11.18
2022-08-19T21:50:54.507Z,13.60
2022-08-19T21:56:00.440Z,12.10
2022-08-19T22:01:07.873Z,14.25
2022-08-19T22:06:11.462Z,12.18
2022-08-19T22:11:17.113Z,15.52
2022-08-19T22:16:21.134Z,13.82
2022-08-19T22:21:31.355Z,16.13
2022-08-19T22:26:45.892Z,15.40
2022-08-19T22:31:54.492Z,18.90
2022-08-19T22:37:01.787Z,15.98
2022-08-19T22:42:07.440Z,11.48
2022-08-19T22:47:11.108Z,15.63
2022-08-19T22:52:18.407Z,13.70
2022-08-19T22:57:24.120Z,12.30
2022-08-19T23:02:31.293Z,14.45
2022-08-19T23:07:35.277Z,12.80
2022-08-19T23:12:43.627Z,11.50
2022-08-19T23:17:47.550Z,15.35
2022-08-19T23:22:52.519Z,15.85
2022-08-19T23:28:15.132Z,14.65
2022-08-19T23:33:24.204Z,15.32
2022-08-19T23:38:32.261Z,17.63
2022-08-19T23:43:38.816Z,12.02
2022-08-19T23:48:42.923Z,12.70
2022-08-19T23:53:46.602Z,13.63
2022-08-19T23:58:51.579Z,15.40
